Time;durP1;ratioP1;P1;durP2;ratioP2;P2;SDS_P1;SDS_P2;PMS_P1;PMS_P2;Temp;Humidity;BMP_temperature;BMP_pressure;BME280_temperature;BME280_humidity;BME280_pressure;Samples;Min_cycle;Max_cycle;Signal;HPM_P1;HPM_P2
2022/08/08 00:01:40;;;;;;;1.20;0.70;;;17.70;70.90;;;;;;5106252;28;20461;-83
2022/08/08 00:04:25;;;;;;;;;;;17.60;70.80;;;;;;5114104;28;20019;-82
2022/08/08 00:07:03;;;;;;;1.15;0.73;;;17.60;70.80;;;;;;5113150;28;20319;-82
2022/08/08 00:09:50;;;;;;;1.65;0.60;;;17.60;71.50;;;;;;5114602;28;20115;-84
2022/08/08 00:12:21;;;;;;;3.15;1.10;;;17.50;71.80;;;;;;5114295;28;20110;-81
2022/08/08 00:14:54;;;;;;;1.52;1.02;;;17.50;71.80;;;;;;5113135;28;20031;-82
2022/08/08 00:17:42;;;;;;;1.65;0.57;;;17.40;71.90;;;;;;5112283;28;20085;-82
2022/08/08 00:20:10;;;;;;;0.77;0.50;;;17.40;71.70;;;;;;5114121;28;20020;-81
2022/08/08 00:22:44;;;;;;;1.10;0.65;;;17.40;71.50;;;;;;5112541;28;20070;-81
2022/08/08 00:25:24;;;;;;;3.05;0.68;;;17.40;71.90;;;;;;5114195;28;20051;-82
2022/08/08 00:27:53;;;;;;;1.38;0.50;;;17.30;72.10;;;;;;5114330;28;20023;-80
2022/08/08 00:30:19;;;;;;;2.13;0.55;;;17.30;72.30;;;;;;5114358;27;20438;-81
2022/08/08 00:33:01;;;;;;;1.30;0.57;;;17.30;72.30;;;;;;5113946;27;20742;-82
2022/08/08 00:35:43;;;;;;;1.85;1.25;;;17.30;72.80;;;;;;5113786;28;20486;-82
2022/08/08 00:38:27;;;;;;;0.93;0.50;;;17.30;72.60;;;;;;5113988;27;20031;-82
2022/08/08 00:41:29;;;;;;;1.05;0.57;;;17.30;72.40;;;;;;5113229;28;20408;-82
2022/08/08 00:44:06;;;;;;;0.75;0.50;;;17.20;72.40;;;;;;5112668;28;20023;-82
2022/08/08 00:46:44;;;;;;;1.08;0.57;;;17.20;72.40;;;;;;5111727;28;20030;-82
2022/08/08 00:49:33;;;;;;;1.38;0.88;;;17.20;72.20;;;;;;5113887;28;20102;-82
2022/08/08 00:52:13;;;;;;;0.50;0.50;;;17.10;72.20;;;;;;5112251;28;20096;-83
2022/08/08 00:54:50;;;;;;;1.45;0.65;;;17.10;73.00;;;;;;5114035;28;20046;-82
2022/08/08 00:57:49;;;;;;;2.92;0.70;;;17.10;72.90;;;;;;5112912;28;20491;-83
2022/08/08 01:00:18;;;;;;;1.30;0.60;;;17.00;73.00;;;;;;5112194;28;20024;-82
2022/08/08 01:03:10;;;;;;;1.23;0.75;;;17.00;73.40;;;;;;5113070;28;20051;-82
2022/08/08 01:06:16;;;;;;;1.05;0.60;;;17.00;73.30;;;;;;5112960;28;20028;-82
2022/08/08 01:09:19;;;;;;;0.80;0.50;;;16.90;73.70;;;;;;5112883;28;20084;-83
2022/08/08 01:12:15;;;;;;;0.90;0.60;;;16.90;73.70;;;;;;5113090;28;20434;-82
2022/08/08 01:15:26;;;;;;;2.45;0.70;;;16.90;73.80;;;;;;5112030;28;20038;-83
2022/08/08 01:18:00;;;;;;;1.33;0.70;;;16.90;74.20;;;;;;5113295;28;20032;-82
2022/08/08 01:21:03;;;;;;;4.30;0.68;;;16.80;74.40;;;;;;5113622;28;20051;-82
2022/08/08 01:23:34;;;;;;;1.00;0.43;;;16.80;74.80;;;;;;5112715;28;20020;-82
2022/08/08 01:26:21;;;;;;;2.08;0.60;;;16.70;74.80;;;;;;5112335;28;20446;-82
2022/08/08 01:29:26;;;;;;;2.85;0.60;;;16.70;74.90;;;;;;5111533;28;20038;-82
2022/08/08 01:32:15;;;;;;;0.82;0.60;;;16.60;75.00;;;;;;5112655;28;20026;-82
2022/08/08 01:35:15;;;;;;;1.92;0.68;;;16.60;75.40;;;;;;5112726;28;20030;-81
2022/08/08 01:38:03;;;;;;;1.83;0.80;;;16.50;75.90;;;;;;5111212;28;20028;-82
2022/08/08 01:41:05;;;;;;;1.58;0.70;;;16.50;75.90;;;;;;5112817;28;20027;-82
2022/08/08 01:43:48;;;;;;;1.90;0.68;;;16.50;76.20;;;;;;5112756;28;20306;-82
2022/08/08 01:46:25;;;;;;;0.95;0.63;;;16.40;76.70;;;;;;5112531;28;20019;-81
2022/08/08 01:49:18;;;;;;;2.15;0.70;;;16.40;77.10;;;;;;5112824;28;20072;-82
2022/08/08 01:51:57;;;;;;;1.98;0.60;;;16.40;77.30;;;;;;5112471;28;20023;-81
2022/08/08 01:54:56;;;;;;;2.20;0.85;;;16.30;77.40;;;;;;5112546;28;20554;-81
2022/08/08 01:58:03;;;;;;;0.93;0.70;;;16.30;77.30;;;;;;5111605;27;20036;-82
2022/08/08 02:01:07;;;;;;;1.33;0.80;;;16.30;77.30;;;;;;5112274;28;20097;-82
2022/08/08 02:03:51;;;;;;;0.60;0.50;;;16.20;78.10;;;;;;5112765;28;20055;-81
2022/08/08 02:06:20;;;;;;;1.80;0.70;;;16.20;77.90;;;;;;5111660;28;20028;-82
2022/08/08 02:09:14;;;;;;;1.45;0.68;;;16.20;78.50;;;;;;5111057;28;20485;-81
2022/08/08 02:11:42;;;;;;;1.50;0.77;;;16.20;78.60;;;;;;5112327;28;20062;-82
2022/08/08 02:14:27;;;;;;;3.40;0.73;;;16.20;79.20;;;;;;5112136;28;20034;-82
2022/08/08 02:17:22;;;;;;;0.93;0.75;;;16.10;79.50;;;;;;5110241;28;20032;-82
2022/08/08 02:19:56;;;;;;;4.45;0.90;;;16.10;79.50;;;;;;5110931;28;20389;-82
2022/08/08 02:22:52;;;;;;;1.63;0.77;;;16.10;79.80;;;;;;5111905;28;20070;-82
2022/08/08 02:25:26;;;;;;;1.85;0.60;;;16.00;79.70;;;;;;5111389;28;20070;-82
2022/08/08 02:27:58;;;;;;;1.17;1.05;;;16.00;80.30;;;;;;5110846;28;20477;-82
2022/08/08 02:31:01;;;;;;;1.20;0.70;;;16.00;80.20;;;;;;5112020;28;20497;-81
2022/08/08 02:33:36;;;;;;;;;;;16.00;80.10;;;;;;5111756;28;20409;-82
2022/08/08 02:36:11;;;;;;;1.38;0.90;;;16.00;79.90;;;;;;5111377;28;19908;-82
2022/08/08 02:38:44;;;;;;;0.90;0.70;;;15.90;80.70;;;;;;5110851;28;20150;-81
2022/08/08 02:41:28;;;;;;;3.00;0.73;;;15.80;81.00;;;;;;5111172;28;20026;-80
2022/08/08 02:44:44;;;;;;;4.22;1.15;;;15.80;81.40;;;;;;5110235;28;20429;-81
2022/08/08 02:47:29;;;;;;;0.98;0.80;;;15.80;81.60;;;;;;5109696;28;20065;-81
2022/08/08 02:50:23;;;;;;;1.85;1.10;;;15.80;81.80;;;;;;5115216;28;20034;-80
2022/08/08 02:53:33;;;;;;;1.75;0.90;;;15.70;82.00;;;;;;5116466;28;20024;-82
2022/08/08 02:56:20;;;;;;;1.25;0.77;;;15.70;82.20;;;;;;5111433;28;20516;-82
2022/08/08 02:59:14;;;;;;;1.65;1.25;;;15.70;83.10;;;;;;5111359;28;20054;-82
2022/08/08 03:01:45;;;;;;;1.48;1.10;;;15.60;83.40;;;;;;5111446;28;20054;-81
2022/08/08 03:04:13;;;;;;;1.08;0.60;;;15.60;83.70;;;;;;5111626;28;20114;-81
2022/08/08 03:07:03;;;;;;;3.22;1.05;;;15.50;83.80;;;;;;5112079;28;20028;-81
2022/08/08 03:09:51;;;;;;;1.83;0.65;;;15.50;83.90;;;;;;5115399;28;20405;-81
2022/08/08 03:12:46;;;;;;;2.35;0.93;;;15.50;84.30;;;;;;5113278;28;20024;-83
2022/08/08 03:15:23;;;;;;;2.25;0.75;;;15.50;84.60;;;;;;5111548;28;20035;-81
2022/08/08 03:18:12;;;;;;;2.88;0.80;;;15.50;85.30;;;;;;5109507;28;20422;-83
2022/08/08 03:20:46;;;;;;;3.13;1.17;;;15.40;85.70;;;;;;5109720;28;20024;-81
2022/08/08 03:23:12;;;;;;;1.85;0.93;;;15.40;86.00;;;;;;5110877;28;20118;-82
2022/08/08 03:25:38;;;;;;;1.70;0.90;;;15.40;86.30;;;;;;5110374;28;20418;-81
2022/08/08 03:28:11;;;;;;;1.98;1.50;;;15.40;86.70;;;;;;5109480;28;20028;-82
2022/08/08 03:30:37;;;;;;;3.28;1.50;;;15.30;87.20;;;;;;5110470;28;20032;-82
2022/08/08 03:33:18;;;;;;;1.10;0.90;;;15.30;87.30;;;;;;5110093;28;20096;-82
2022/08/08 03:35:46;;;;;;;1.38;1.00;;;15.30;87.40;;;;;;5110345;28;20465;-81
2022/08/08 03:38:12;;;;;;;2.13;1.20;;;15.30;87.80;;;;;;5108964;28;20109;-81
2022/08/08 03:40:37;;;;;;;1.88;1.20;;;15.30;88.00;;;;;;5110303;28;20024;-81
2022/08/08 03:43:06;;;;;;;1.67;1.08;;;15.30;88.00;;;;;;5109164;28;20054;-82
2022/08/08 03:45:32;;;;;;;2.65;1.20;;;15.30;88.60;;;;;;5108398;28;20024;-79
2022/08/08 03:48:04;;;;;;;2.40;1.30;;;15.20;88.80;;;;;;5110619;28;20096;-80
2022/08/08 03:50:31;;;;;;;1.77;1.17;;;15.20;89.30;;;;;;5109184;28;20051;-80
2022/08/08 03:53:02;;;;;;;1.58;1.27;;;15.30;89.70;;;;;;5110358;28;20047;-81
2022/08/08 03:55:27;;;;;;;1.60;0.80;;;15.20;90.10;;;;;;5109637;28;20034;-79
2022/08/08 03:57:55;;;;;;;2.25;0.90;;;15.20;90.00;;;;;;5110624;28;20035;-81
2022/08/08 04:00:26;;;;;;;1.95;1.35;;;15.20;90.00;;;;;;5110176;28;20088;-81
2022/08/08 04:03:00;;;;;;;3.75;0.90;;;15.20;90.10;;;;;;5108870;28;20038;-81
2022/08/08 04:05:29;;;;;;;1.77;1.02;;;15.20;90.30;;;;;;5108565;28;20142;-81
2022/08/08 04:07:56;;;;;;;1.25;1.10;;;15.20;90.40;;;;;;5110258;28;20020;-81
2022/08/08 04:10:22;;;;;;;1.73;1.05;;;15.20;90.60;;;;;;5110341;28;20030;-81
2022/08/08 04:12:48;;;;;;;2.08;1.20;;;15.20;90.60;;;;;;5109849;28;20028;-81
2022/08/08 04:15:13;;;;;;;1.85;0.95;;;15.20;90.80;;;;;;5108812;28;20557;-81
2022/08/08 04:17:39;;;;;;;2.95;1.58;;;15.30;90.80;;;;;;5109615;28;20114;-81
2022/08/08 04:20:05;;;;;;;3.50;1.13;;;15.30;90.90;;;;;;5110461;28;20062;-80
2022/08/08 04:22:31;;;;;;;1.30;0.88;;;15.30;90.80;;;;;;5109864;28;20119;-81
2022/08/08 04:24:57;;;;;;;1.20;0.90;;;15.30;90.70;;;;;;5110281;28;20062;-80
2022/08/08 04:27:23;;;;;;;2.30;1.00;;;15.40;90.60;;;;;;5109641;28;20031;-80
2022/08/08 04:29:48;;;;;;;1.98;0.73;;;15.40;90.20;;;;;;5110632;28;20027;-80
2022/08/08 04:32:14;;;;;;;1.35;0.90;;;15.40;90.40;;;;;;5110210;28;20020;-80
2022/08/08 04:34:41;;;;;;;1.80;1.10;;;15.40;90.50;;;;;;5110698;28;20076;-81
2022/08/08 04:37:06;;;;;;;1.98;1.42;;;15.50;90.40;;;;;;5109600;28;20024;-80
2022/08/08 04:39:32;;;;;;;3.95;1.38;;;15.50;90.50;;;;;;5108942;28;20024;-81
2022/08/08 04:41:57;;;;;;;2.03;0.93;;;15.60;90.40;;;;;;5110269;28;20024;-81
2022/08/08 04:44:24;;;;;;;3.55;1.30;;;15.60;90.50;;;;;;5112894;28;20419;-81
2022/08/08 04:46:49;;;;;;;2.22;0.90;;;15.60;90.40;;;;;;5113434;28;20027;-82
2022/08/08 04:49:15;;;;;;;1.55;1.25;;;15.70;90.50;;;;;;5114050;27;20083;-81
2022/08/08 04:51:40;;;;;;;1.48;0.98;;;15.70;90.60;;;;;;5114278;28;20039;-81
2022/08/08 04:54:06;;;;;;;5.32;1.05;;;15.70;90.60;;;;;;5113616;28;20065;-81
2022/08/08 04:56:31;;;;;;;2.70;1.50;;;15.70;90.80;;;;;;5113616;28;20525;-81
2022/08/08 04:58:57;;;;;;;3.50;1.45;;;15.70;90.70;;;;;;5113781;28;20122;-81
2022/08/08 05:01:22;;;;;;;1.65;1.02;;;15.80;90.70;;;;;;5113346;28;20027;-81
2022/08/08 05:03:48;;;;;;;1.60;1.00;;;15.80;90.80;;;;;;5113603;28;20024;-81
2022/08/08 05:06:14;;;;;;;2.42;1.20;;;15.80;91.00;;;;;;5112992;28;20058;-81
2022/08/08 05:08:40;;;;;;;4.35;1.40;;;15.80;91.00;;;;;;5112488;28;20061;-81
2022/08/08 05:11:06;;;;;;;2.20;1.35;;;15.90;91.30;;;;;;5112805;28;20031;-81
2022/08/08 05:13:32;;;;;;;3.42;1.88;;;15.90;91.30;;;;;;5113861;28;20031;-81
2022/08/08 05:15:58;;;;;;;2.40;1.60;;;15.90;91.40;;;;;;5112908;28;20027;-82
2022/08/08 05:18:23;;;;;;;2.97;1.30;;;15.90;91.60;;;;;;5113215;28;20039;-81
2022/08/08 05:20:49;;;;;;;3.95;1.63;;;16.00;91.90;;;;;;5113138;28;20050;-81
2022/08/08 05:23:14;;;;;;;2.63;1.48;;;16.00;91.70;;;;;;5113836;28;20027;-82
2022/08/08 05:25:40;;;;;;;2.13;1.38;;;16.00;91.70;;;;;;5111717;28;20469;-81
2022/08/08 05:28:06;;;;;;;2.63;1.35;;;16.10;91.80;;;;;;5113577;28;20039;-81
2022/08/08 05:30:31;;;;;;;5.22;1.88;;;16.10;91.80;;;;;;5113523;28;20610;-81
2022/08/08 05:32:57;;;;;;;2.70;1.27;;;16.10;91.80;;;;;;5113263;28;20087;-82
2022/08/08 05:35:22;;;;;;;2.28;1.10;;;16.20;92.00;;;;;;5112569;28;20028;-81
2022/08/08 05:37:54;;;;;;;3.15;1.10;;;16.30;92.00;;;;;;5112755;27;20034;-79
2022/08/08 05:40:20;;;;;;;3.45;1.42;;;16.30;91.90;;;;;;5112736;27;20027;-80
2022/08/08 05:42:53;;;;;;;3.72;1.65;;;16.30;91.80;;;;;;5112812;28;20079;-81
2022/08/08 05:45:18;;;;;;;4.30;1.17;;;16.40;91.70;;;;;;5112305;28;20031;-80
2022/08/08 05:47:45;;;;;;;6.72;1.48;;;16.50;91.70;;;;;;5112573;28;20437;-82
2022/08/08 05:50:10;;;;;;;3.10;1.15;;;16.60;91.40;;;;;;5111239;28;20035;-81
2022/08/08 05:52:37;;;;;;;2.05;1.13;;;16.60;91.00;;;;;;5110739;28;20073;-80
2022/08/08 05:55:04;;;;;;;2.35;1.10;;;16.70;90.50;;;;;;5112489;28;20035;-81
2022/08/08 05:57:33;;;;;;;1.58;1.00;;;16.80;90.40;;;;;;5111883;27;20088;-80
2022/08/08 06:00:00;;;;;;;4.80;1.33;;;16.90;90.30;;;;;;5112497;28;20385;-82
2022/08/08 06:05:13;;;;;;;1.63;1.02;;;17.00;88.60;;;;;;5112314;28;20081;-81
2022/08/08 06:07:40;;;;;;;2.35;1.08;;;17.10;88.60;;;;;;5111851;28;20554;-81
2022/08/08 06:10:07;;;;;;;2.72;1.35;;;17.20;89.10;;;;;;5111041;28;20027;-81
2022/08/08 06:12:35;;;;;;;4.90;1.20;;;17.30;88.90;;;;;;5110501;28;20049;-82
2022/08/08 06:15:02;;;;;;;2.88;1.42;;;17.40;88.00;;;;;;5112402;28;20032;-81
2022/08/08 06:17:32;;;;;;;3.13;1.20;;;17.50;88.50;;;;;;5110059;28;20051;-82
2022/08/08 06:20:04;;;;;;;2.90;1.30;;;17.60;87.60;;;;;;5112074;28;20073;-80
2022/08/08 06:22:29;;;;;;;2.33;1.10;;;17.60;87.90;;;;;;5112040;28;20386;-82
2022/08/08 06:24:55;;;;;;;3.92;1.15;;;17.70;88.00;;;;;;5112440;28;20061;-83
2022/08/08 06:27:50;;;;;;;3.80;0.95;;;17.80;87.40;;;;;;5110630;28;20054;-82
2022/08/08 06:30:17;;;;;;;2.28;1.23;;;17.90;87.40;;;;;;5120034;28;20053;-82
2022/08/08 06:32:47;;;;;;;5.22;1.48;;;18.00;86.30;;;;;;5118428;28;20023;-84
2022/08/08 06:35:15;;;;;;;11.30;1.52;;;18.00;86.10;;;;;;5111196;28;20027;-82
2022/08/08 06:37:45;;;;;;;7.45;1.85;;;18.10;87.40;;;;;;5111192;28;20050;-82
2022/08/08 06:40:13;;;;;;;2.70;1.27;;;18.20;85.80;;;;;;5109968;28;20058;-82
2022/08/08 06:42:45;;;;;;;3.45;1.35;;;18.30;85.70;;;;;;5109915;28;20405;-81
2022/08/08 06:45:11;;;;;;;4.22;1.38;;;18.30;85.30;;;;;;5111197;28;20032;-81
2022/08/08 06:47:37;;;;;;;3.28;1.55;;;18.50;85.60;;;;;;5111034;28;20039;-82
2022/08/08 06:50:04;;;;;;;2.35;1.10;;;18.60;84.90;;;;;;5111590;28;20035;-81
2022/08/08 06:52:31;;;;;;;3.88;1.40;;;18.70;84.40;;;;;;5110883;28;20715;-81
2022/08/08 06:54:59;;;;;;;3.20;1.25;;;18.80;84.30;;;;;;5111251;28;20024;-82
2022/08/08 06:57:25;;;;;;;3.67;1.10;;;18.90;83.90;;;;;;5110443;28;20489;-81
2022/08/08 06:59:52;;;;;;;3.90;1.25;;;19.10;83.40;;;;;;5111321;28;20028;-81
2022/08/08 07:02:23;;;;;;;1.75;1.27;;;19.20;82.20;;;;;;5110468;28;20027;-82
2022/08/08 07:04:55;;;;;;;1.47;1.03;;;19.30;82.50;;;;;;5111148;28;20419;-83
2022/08/08 07:07:32;;;;;;;2.65;1.38;;;19.40;82.00;;;;;;5109562;28;20273;-82
2022/08/08 07:10:08;;;;;;;2.97;1.25;;;19.50;81.40;;;;;;5111150;28;20492;-83
2022/08/08 07:12:45;;;;;;;1.65;0.82;;;19.60;81.50;;;;;;5110793;28;20122;-82
2022/08/08 07:15:13;;;;;;;1.38;0.80;;;19.80;81.40;;;;;;5109315;28;20481;-81
2022/08/08 07:17:46;;;;;;;4.70;1.38;;;19.90;80.10;;;;;;5110420;28;20036;-82
2022/08/08 07:20:23;;;;;;;4.45;1.30;;;20.00;80.40;;;;;;5111219;28;20039;-82
2022/08/08 07:23:16;;;;;;;2.80;1.20;;;20.20;80.20;;;;;;5110876;28;20042;-81
2022/08/08 07:25:45;;;;;;;2.15;0.95;;;20.30;79.50;;;;;;5110441;28;20114;-81
2022/08/08 07:28:14;;;;;;;2.97;1.60;;;20.50;79.40;;;;;;5109372;28;20031;-82
2022/08/08 07:30:41;;;;;;;2.00;1.08;;;20.60;79.20;;;;;;5110485;28;20373;-83
2022/08/08 07:33:10;;;;;;;5.88;1.40;;;20.70;79.30;;;;;;5110203;28;20032;-83
2022/08/08 07:35:37;;;;;;;3.20;1.27;;;20.80;78.90;;;;;;5110265;28;20027;-82
2022/08/08 07:38:04;;;;;;;2.30;1.20;;;21.10;77.40;;;;;;5110525;28;20043;-83
2022/08/08 07:40:31;;;;;;;1.67;0.70;;;21.20;77.20;;;;;;5110904;28;20086;-83
2022/08/08 07:42:57;;;;;;;4.13;1.55;;;21.40;76.40;;;;;;5110785;28;20046;-83
2022/08/08 07:45:23;;;;;;;2.50;1.17;;;21.60;75.20;;;;;;5110887;28;20468;-83
2022/08/08 07:47:49;;;;;;;1.83;1.15;;;21.70;74.50;;;;;;5110864;28;20115;-83
2022/08/08 07:50:15;;;;;;;3.08;0.80;;;21.90;72.70;;;;;;5109810;28;20493;-84
2022/08/08 07:52:45;;;;;;;2.13;0.80;;;22.10;72.40;;;;;;5110851;28;20421;-84
2022/08/08 07:55:37;;;;;;;2.60;1.30;;;22.30;72.10;;;;;;5110660;28;20112;-84
2022/08/08 07:58:30;;;;;;;1.40;0.80;;;22.50;72.00;;;;;;5105988;28;20405;-83
2022/08/08 08:01:06;;;;;;;1.70;0.77;;;22.70;70.70;;;;;;5110779;28;20028;-85
2022/08/08 08:03:44;;;;;;;1.95;0.80;;;22.90;71.00;;;;;;5110685;28;20502;-84
2022/08/08 08:06:12;;;;;;;3.25;0.80;;;23.00;71.20;;;;;;5108652;28;20791;-84
2022/08/08 08:08:40;;;;;;;1.67;0.80;;;23.10;68.60;;;;;;5110598;28;20408;-84
2022/08/08 08:11:13;;;;;;;4.93;1.10;;;23.20;67.50;;;;;;5110452;28;20541;-84
2022/08/08 08:13:40;;;;;;;3.95;1.27;;;23.40;68.50;;;;;;5110463;28;20517;-85
2022/08/08 08:16:17;;;;;;;1.55;0.88;;;23.40;66.70;;;;;;5109966;28;20028;-85
2022/08/08 08:18:45;;;;;;;4.18;1.45;;;23.50;65.60;;;;;;5117797;28;20040;-84
2022/08/08 08:21:11;;;;;;;1.33;0.82;;;23.60;65.50;;;;;;5122443;28;20034;-84
2022/08/08 08:23:37;;;;;;;2.25;0.82;;;23.70;63.40;;;;;;5121927;28;20165;-83
2022/08/08 08:26:03;;;;;;;3.00;0.90;;;23.70;64.60;;;;;;5121714;28;20051;-85
2022/08/08 08:28:29;;;;;;;4.85;0.80;;;23.90;64.60;;;;;;5119805;28;20031;-83
2022/08/08 08:30:57;;;;;;;1.83;0.80;;;24.00;63.90;;;;;;5116879;28;20038;-84
2022/08/08 08:33:23;;;;;;;1.25;0.70;;;24.20;64.40;;;;;;5120704;28;20031;-85
2022/08/08 08:35:48;;;;;;;1.85;0.88;;;24.30;64.80;;;;;;5118849;28;20028;-85
2022/08/08 08:38:14;;;;;;;0.80;0.50;;;24.50;65.50;;;;;;5118594;28;20058;-84
2022/08/08 08:40:40;;;;;;;2.95;0.70;;;24.70;61.50;;;;;;5125862;28;20099;-85
2022/08/08 08:43:07;;;;;;;4.18;0.60;;;24.80;60.90;;;;;;5123239;28;20389;-85
2022/08/08 08:45:34;;;;;;;2.38;0.80;;;24.90;61.50;;;;;;5120153;28;20440;-86
2022/08/08 08:47:59;;;;;;;1.77;0.68;;;25.10;59.80;;;;;;5119077;28;20484;-85
2022/08/08 08:50:27;;;;;;;1.77;0.80;;;25.20;61.00;;;;;;5119805;28;20027;-86
2022/08/08 08:52:55;;;;;;;2.00;0.65;;;25.20;59.50;;;;;;5120197;27;20104;-86
2022/08/08 08:55:21;;;;;;;2.22;0.70;;;25.30;59.70;;;;;;5121260;27;20030;-85
2022/08/08 08:57:48;;;;;;;1.55;0.70;;;25.50;60.60;;;;;;5124521;28;20070;-86
2022/08/08 09:00:14;;;;;;;1.38;0.50;;;25.60;58.90;;;;;;5122670;28;20024;-85
2022/08/08 09:02:42;;;;;;;2.92;0.52;;;25.80;59.00;;;;;;5125895;28;20035;-83
2022/08/08 09:05:11;;;;;;;1.00;0.50;;;25.90;59.50;;;;;;5129275;28;20083;-84
2022/08/08 09:07:39;;;;;;;2.05;0.75;;;26.10;57.40;;;;;;5126807;28;20066;-84
2022/08/08 09:10:06;;;;;;;2.53;0.88;;;26.20;54.50;;;;;;5127899;28;20035;-84
2022/08/08 09:12:34;;;;;;;1.58;0.80;;;26.20;55.40;;;;;;5128171;28;20020;-83
2022/08/08 09:15:00;;;;;;;3.95;0.82;;;26.30;56.10;;;;;;5126061;28;20034;-83
2022/08/08 09:17:26;;;;;;;1.38;0.75;;;26.30;54.70;;;;;;5125906;28;20031;-85
2022/08/08 09:19:55;;;;;;;1.38;0.70;;;26.40;54.50;;;;;;5120687;28;20358;-84
2022/08/08 09:22:21;;;;;;;2.60;0.93;;;26.40;54.20;;;;;;5114871;28;20497;-84
2022/08/08 09:24:51;;;;;;;3.13;0.70;;;26.50;55.80;;;;;;5113056;28;20028;-84
2022/08/08 09:27:18;;;;;;;3.10;0.80;;;26.60;53.40;;;;;;5114603;28;20039;-87
2022/08/08 09:30:00;;;;;;;2.55;0.98;;;26.70;54.70;;;;;;5114194;28;20469;-86
2022/08/08 09:32:31;;;;;;;1.42;0.75;;;26.70;54.10;;;;;;5113685;28;20058;-86
2022/08/08 09:34:59;;;;;;;2.20;0.73;;;26.80;53.30;;;;;;5112671;28;20023;-86
2022/08/08 09:37:28;;;;;;;1.58;0.88;;;26.80;52.20;;;;;;5113138;28;20463;-85
2022/08/08 09:40:06;;;;;;;2.28;0.70;;;27.00;53.70;;;;;;5113725;28;20065;-85
2022/08/08 09:42:37;;;;;;;1.52;0.65;;;27.20;56.10;;;;;;5114253;28;20036;-86
2022/08/08 09:45:32;;;;;;;1.92;0.93;;;27.40;54.40;;;;;;5115536;28;20036;-87
2022/08/08 09:48:01;;;;;;;1.83;1.10;;;27.50;53.00;;;;;;5099307;28;20040;-86
2022/08/08 09:50:29;;;;;;;0.98;0.80;;;27.60;52.50;;;;;;5116673;28;20028;-85
2022/08/08 09:52:55;;;;;;;1.85;0.65;;;27.70;51.40;;;;;;5122822;28;20035;-86
2022/08/08 09:55:22;;;;;;;4.43;0.80;;;27.70;51.40;;;;;;5120327;28;20030;-86
2022/08/08 09:57:49;;;;;;;3.40;0.95;;;27.60;53.10;;;;;;5113522;28;20032;-87
2022/08/08 10:00:18;;;;;;;3.90;1.13;;;27.70;53.00;;;;;;5112476;28;20165;-86
2022/08/08 10:02:50;;;;;;;6.35;0.70;;;27.80;50.90;;;;;;5112846;28;20023;-86
2022/08/08 10:05:20;;;;;;;;;;;27.70;50.10;;;;;;5113221;28;20043;-87
2022/08/08 10:07:51;;;;;;;2.85;0.70;;;27.60;51.00;;;;;;5111612;28;19908;-87
2022/08/08 10:10:28;;;;;;;1.83;0.95;;;27.60;52.50;;;;;;5113032;28;20027;-86
2022/08/08 10:12:54;;;;;;;0.82;0.55;;;27.60;52.80;;;;;;5111439;28;20023;-85
2022/08/08 10:15:22;;;;;;;1.08;0.80;;;27.60;51.30;;;;;;5112612;28;20035;-86
2022/08/08 10:17:50;;;;;;;3.90;0.90;;;27.80;50.70;;;;;;5113332;28;20063;-87
2022/08/08 10:20:16;;;;;;;1.80;0.75;;;27.70;50.90;;;;;;5113471;28;20036;-86
2022/08/08 10:22:55;;;;;;;1.55;0.70;;;27.80;49.70;;;;;;5113015;28;20038;-86
2022/08/08 10:25:23;;;;;;;2.10;0.65;;;27.90;50.50;;;;;;5112613;28;20023;-88
2022/08/08 10:27:51;;;;;;;2.92;0.70;;;28.00;52.50;;;;;;5111263;28;20038;-88
2022/08/08 10:30:18;;;;;;;2.25;0.57;;;28.10;51.30;;;;;;5112575;27;20030;-86
2022/08/08 10:32:54;;;;;;;7.13;0.70;;;28.30;51.40;;;;;;5112235;28;20046;-86
2022/08/08 10:35:26;;;;;;;1.17;0.70;;;28.30;51.30;;;;;;5112872;28;20210;-87
2022/08/08 10:37:55;;;;;;;5.30;0.50;;;28.30;52.30;;;;;;5112247;28;20054;-86
2022/08/08 10:40:22;;;;;;;2.47;0.60;;;28.30;53.40;;;;;;5111693;28;20027;-86
2022/08/08 10:42:52;;;;;;;4.53;1.00;;;28.30;50.50;;;;;;5111832;28;20015;-88
2022/08/08 10:45:18;;;;;;;1.85;0.60;;;28.20;49.80;;;;;;5111804;28;20430;-86
2022/08/08 10:47:51;;;;;;;3.30;0.68;;;28.10;49.80;;;;;;5112664;28;20106;-86
2022/08/08 10:50:17;;;;;;;1.42;1.05;;;28.10;50.20;;;;;;5112261;28;20062;-86
2022/08/08 10:52:42;;;;;;;2.33;1.08;;;28.30;51.40;;;;;;5111306;28;20473;-90
2022/08/08 10:55:14;;;;;;;1.92;0.60;;;28.40;50.30;;;;;;5111257;28;20027;-86
2022/08/08 10:57:48;;;;;;;1.40;0.60;;;28.50;50.90;;;;;;5111055;28;20027;-86
2022/08/08 11:00:25;;;;;;;0.85;0.52;;;28.80;53.00;;;;;;5111328;28;20019;-86
2022/08/08 11:02:51;;;;;;;3.25;0.50;;;29.00;53.20;;;;;;5110546;28;20149;-85
2022/08/08 11:05:17;;;;;;;1.55;0.77;;;29.20;52.00;;;;;;5111719;28;20046;-87
2022/08/08 11:07:48;;;;;;;2.58;0.70;;;29.40;51.70;;;;;;5111922;28;20034;-87
2022/08/08 11:10:16;;;;;;;3.42;0.60;;;29.60;51.70;;;;;;5111835;28;20514;-84
2022/08/08 11:12:50;;;;;;;1.25;0.68;;;29.80;48.10;;;;;;5109954;28;20036;-87
2022/08/08 11:15:19;;;;;;;2.47;0.70;;;29.60;48.40;;;;;;5111481;28;20047;-85
2022/08/08 11:17:45;;;;;;;1.67;0.50;;;29.60;47.10;;;;;;5111820;28;20421;-85
2022/08/08 11:20:19;;;;;;;1.33;0.70;;;29.60;48.10;;;;;;5111395;28;20027;-85
2022/08/08 11:22:57;;;;;;;1.13;0.50;;;29.50;48.30;;;;;;5111722;28;20130;-85
2022/08/08 11:25:27;;;;;;;1.92;0.60;;;29.30;47.10;;;;;;5111538;28;20016;-85
2022/08/08 11:27:54;;;;;;;1.60;0.60;;;29.30;47.80;;;;;;5112120;28;20038;-84
2022/08/08 11:30:23;;;;;;;1.33;0.50;;;29.30;48.40;;;;;;5112027;28;20024;-85
2022/08/08 11:32:52;;;;;;;0.68;0.40;;;29.40;48.80;;;;;;5111710;28;20427;-86
2022/08/08 11:35:19;;;;;;;3.88;0.55;;;29.40;48.80;;;;;;5110660;28;20055;-86
2022/08/08 11:37:45;;;;;;;1.58;0.80;;;29.50;47.60;;;;;;5111489;28;20063;-86
2022/08/08 11:40:12;;;;;;;1.10;0.52;;;29.50;47.50;;;;;;5110100;28;20062;-86
2022/08/08 11:42:40;;;;;;;2.15;0.55;;;29.50;48.40;;;;;;5103154;28;20043;-86
2022/08/08 11:45:08;;;;;;;2.15;0.90;;;29.60;47.10;;;;;;5111091;28;20030;-86
2022/08/08 11:47:34;;;;;;;3.03;0.60;;;29.70;47.20;;;;;;5109387;28;20020;-86
2022/08/08 11:50:03;;;;;;;7.28;0.70;;;29.80;48.20;;;;;;5109651;28;20031;-86
2022/08/08 11:52:30;;;;;;;3.58;0.68;;;30.00;49.50;;;;;;5111957;28;20026;-85
2022/08/08 11:54:55;;;;;;;1.67;0.73;;;30.10;47.00;;;;;;5115918;28;20032;-85
2022/08/08 11:57:24;;;;;;;3.08;0.57;;;30.30;47.40;;;;;;5115043;28;20031;-86
2022/08/08 11:59:59;;;;;;;0.85;0.50;;;30.40;49.50;;;;;;5115794;28;20329;-86
2022/08/08 12:02:27;;;;;;;3.40;0.60;;;30.60;47.30;;;;;;5113436;28;20400;-84
2022/08/08 12:05:06;;;;;;;4.88;0.75;;;30.70;46.30;;;;;;5115328;28;20055;-86
2022/08/08 12:07:53;;;;;;;1.33;0.50;;;30.80;45.80;;;;;;5115322;28;20024;-86
2022/08/08 12:10:24;;;;;;;4.05;0.63;;;31.00;45.70;;;;;;5115171;28;20035;-81
2022/08/08 12:13:09;;;;;;;5.03;0.88;;;31.10;45.90;;;;;;5115517;28;20107;-85
2022/08/08 12:15:37;;;;;;;1.77;0.88;;;31.20;45.20;;;;;;5113842;28;20020;-83
2022/08/08 12:18:13;;;;;;;3.35;0.60;;;31.20;45.90;;;;;;5115346;28;20027;-86
2022/08/08 12:20:39;;;;;;;3.33;0.55;;;31.10;46.60;;;;;;5115210;28;20028;-85
2022/08/08 12:23:04;;;;;;;1.77;0.77;;;31.20;47.40;;;;;;5113441;28;20059;-86
2022/08/08 12:25:32;;;;;;;2.80;0.63;;;31.20;47.40;;;;;;5114262;28;20512;-84
2022/08/08 12:28:13;;;;;;;1.45;0.88;;;31.20;46.10;;;;;;5130947;27;20059;-85
2022/08/08 12:30:41;;;;;;;2.83;0.90;;;31.10;44.50;;;;;;5113874;28;20126;-86
2022/08/08 12:33:26;;;;;;;5.03;1.27;;;31.20;47.40;;;;;;5113274;28;20028;-84
2022/08/08 12:35:52;;;;;;;2.75;0.70;;;31.30;45.60;;;;;;5114651;28;20427;-87
2022/08/08 12:38:18;;;;;;;4.63;0.75;;;31.20;45.30;;;;;;5114715;28;20067;-86
2022/08/08 12:40:49;;;;;;;1.90;0.70;;;31.10;44.80;;;;;;5115162;28;20150;-84
2022/08/08 12:43:26;;;;;;;1.55;0.68;;;30.90;45.30;;;;;;5130821;27;20047;-85
2022/08/08 12:45:52;;;;;;;2.72;0.90;;;30.70;45.80;;;;;;5114387;28;20040;-86
2022/08/08 12:48:23;;;;;;;1.35;0.70;;;30.70;45.70;;;;;;5114844;27;20046;-86
2022/08/08 12:50:53;;;;;;;3.10;0.80;;;30.60;44.90;;;;;;5113083;28;20027;-86
2022/08/08 12:53:56;;;;;;;0.80;0.65;;;30.50;44.80;;;;;;5115237;28;20068;-86
2022/08/08 12:56:35;;;;;;;2.83;0.63;;;30.20;45.00;;;;;;5112791;28;20473;-86
2022/08/08 12:59:01;;;;;;;2.15;0.60;;;29.90;46.70;;;;;;5114644;28;20118;-85
2022/08/08 13:01:35;;;;;;;3.45;0.60;;;29.90;46.20;;;;;;5114389;27;20125;-85
2022/08/08 13:04:11;;;;;;;2.65;0.70;;;30.00;48.30;;;;;;5112282;28;20035;-84
2022/08/08 13:06:37;;;;;;;1.88;0.60;;;30.10;45.60;;;;;;5113493;28;20027;-84
2022/08/08 13:09:08;;;;;;;2.20;0.60;;;30.20;46.60;;;;;;5116451;28;20035;-85
2022/08/08 13:11:37;;;;;;;3.90;0.50;;;30.40;46.40;;;;;;5122763;28;20490;-85
2022/08/08 13:14:11;;;;;;;1.58;0.65;;;30.60;44.70;;;;;;5120990;28;20020;-84
2022/08/08 13:16:38;;;;;;;1.05;0.60;;;30.70;46.20;;;;;;5112725;28;20016;-86
2022/08/08 13:19:06;;;;;;;2.90;1.17;;;31.00;45.30;;;;;;5114323;28;20062;-85
2022/08/08 13:21:33;;;;;;;5.05;0.57;;;31.20;46.70;;;;;;5112556;28;20023;-86